Time;durP1;ratioP1;P1;durP2;ratioP2;P2;SDS_P1;SDS_P2;PMS_P1;PMS_P2;Temp;Humidity;BMP_temperature;BMP_pressure;BME280_temperature;BME280_humidity;BME280_pressure;Samples;Min_cycle;Max_cycle;Signal;HPM_P1;HPM_P2
2022/03/17 00:03:18;;;;;;;22.48;11.85;;;;;;;;;;10348985;28;20061;-67
2022/03/17 00:08:20;;;;;;;22.88;11.82;;;;;;;;;;10342077;28;20050;-67
2022/03/17 00:13:22;;;;;;;24.02;12.63;;;;;;;;;;10341751;28;20583;-68
2022/03/17 00:18:23;;;;;;;22.10;12.35;;;;;;;;;;10338740;28;20046;-67
2022/03/17 00:23:25;;;;;;;23.33;12.93;;;;;;;;;;10337043;28;20149;-67
2022/03/17 00:28:26;;;;;;;20.17;9.93;;;;;;;;;;10340086;28;20074;-68
2022/03/17 00:33:31;;;;;;;26.85;13.05;;;;;;;;;;10336257;28;20046;-68
2022/03/17 00:38:33;;;;;;;24.98;12.90;;;;;;;;;;10335435;28;20119;-68
2022/03/17 00:43:35;;;;;;;23.48;12.07;;;;;;;;;;10314692;28;20057;-67
2022/03/17 00:48:40;;;;;;;24.00;12.50;;;;;;;;;;10341892;28;20873;-68
2022/03/17 00:53:41;;;;;;;23.58;12.18;;;;;;;;;;10333352;28;20124;-68
2022/03/17 00:58:45;;;;;;;24.38;12.40;;;;;;;;;;10341185;28;20046;-68
2022/03/17 01:03:48;;;;;;;23.40;12.27;;;;;;;;;;10355369;28;20057;-69
2022/03/17 01:08:50;;;;;;;29.13;13.40;;;;;;;;;;10334728;28;20132;-68
2022/03/17 01:13:52;;;;;;;21.20;11.25;;;;;;;;;;10329588;28;20057;-68
2022/03/17 01:18:53;;;;;;;23.88;11.60;;;;;;;;;;10321443;28;20576;-69
2022/03/17 01:23:55;;;;;;;27.70;13.48;;;;;;;;;;10336894;28;20132;-68
2022/03/17 01:28:56;;;;;;;26.42;13.45;;;;;;;;;;10331497;28;20053;-68
2022/03/17 01:33:58;;;;;;;27.33;13.00;;;;;;;;;;10330624;28;20046;-69
2022/03/17 01:39:00;;;;;;;23.40;11.65;;;;;;;;;;10335956;28;20050;-68
2022/03/17 01:44:01;;;;;;;24.35;12.50;;;;;;;;;;10329975;28;20054;-69
2022/03/17 01:49:03;;;;;;;25.30;11.73;;;;;;;;;;10336837;28;20042;-68
2022/03/17 01:54:04;;;;;;;26.25;12.75;;;;;;;;;;10334982;28;20050;-68
2022/03/17 01:59:06;;;;;;;24.00;12.27;;;;;;;;;;10339246;28;20056;-68
2022/03/17 02:04:08;;;;;;;23.52;12.60;;;;;;;;;;10330279;28;20060;-68
2022/03/17 02:09:09;;;;;;;25.13;12.93;;;;;;;;;;10341673;28;20049;-68
2022/03/17 02:14:12;;;;;;;24.55;11.88;;;;;;;;;;10333007;28;20049;-68
2022/03/17 02:19:14;;;;;;;27.73;12.98;;;;;;;;;;10334213;28;20072;-72
2022/03/17 02:29:35;;;;;;;;;;;;;;;;;;10339130;28;20160;-70
2022/03/17 02:34:38;;;;;;;21.77;11.48;;;;;;;;;;10344374;28;19925;-69
2022/03/17 02:39:39;;;;;;;21.85;11.82;;;;;;;;;;10346591;28;20038;-69
2022/03/17 02:44:41;;;;;;;26.13;12.77;;;;;;;;;;10344731;28;20042;-69
2022/03/17 02:49:42;;;;;;;23.05;12.10;;;;;;;;;;10341620;28;20049;-68
2022/03/17 02:54:43;;;;;;;22.70;12.85;;;;;;;;;;10339249;28;20051;-69
2022/03/17 02:59:46;;;;;;;25.45;12.60;;;;;;;;;;10340739;28;20065;-69
2022/03/17 03:04:48;;;;;;;23.63;12.93;;;;;;;;;;10362286;28;20038;-69
2022/03/17 03:09:51;;;;;;;24.80;12.48;;;;;;;;;;10347860;28;20628;-68
2022/03/17 03:14:52;;;;;;;25.80;12.77;;;;;;;;;;10345908;28;20049;-68
2022/03/17 03:19:53;;;;;;;25.23;12.23;;;;;;;;;;10338056;28;20581;-69
2022/03/17 03:24:56;;;;;;;23.08;12.82;;;;;;;;;;10341942;28;20034;-69
2022/03/17 03:29:58;;;;;;;25.75;12.00;;;;;;;;;;10340442;28;20574;-69
2022/03/17 03:37:22;;;;;;;23.50;13.45;;;;;;;;;;10339414;28;20054;-68
2022/03/17 03:40:21;;;;;;;20.48;11.10;;;;;;;;;;10338210;28;20046;-69
2022/03/17 03:45:22;;;;;;;25.25;13.32;;;;;;;;;;10320930;28;20042;-68
2022/03/17 03:50:25;;;;;;;27.30;13.73;;;;;;;;;;10318070;28;20069;-69
2022/03/17 03:55:26;;;;;;;22.80;13.32;;;;;;;;;;10330230;28;20049;-68
2022/03/17 04:05:33;;;;;;;23.35;13.52;;;;;;;;;;10363858;28;20042;-68
2022/03/17 04:10:35;;;;;;;25.85;13.05;;;;;;;;;;10339859;28;20049;-67
2022/03/17 04:15:36;;;;;;;23.75;12.65;;;;;;;;;;10332500;28;20062;-68
2022/03/17 04:20:38;;;;;;;25.33;13.35;;;;;;;;;;10329043;28;20049;-68
2022/03/17 04:25:39;;;;;;;25.70;13.88;;;;;;;;;;10326798;28;20056;-68
2022/03/17 04:30:41;;;;;;;27.55;14.80;;;;;;;;;;10332418;28;20053;-68
2022/03/17 04:35:42;;;;;;;24.35;12.63;;;;;;;;;;10342563;28;20525;-68
2022/03/17 04:40:49;;;;;;;30.60;12.98;;;;;;;;;;10325999;28;20057;-67
2022/03/17 04:45:51;;;;;;;26.35;14.60;;;;;;;;;;10332658;28;20046;-68
2022/03/17 04:50:52;;;;;;;23.60;13.93;;;;;;;;;;10334765;28;20046;-68
2022/03/17 04:55:55;;;;;;;26.92;13.35;;;;;;;;;;10316565;28;20050;-68
2022/03/17 05:00:57;;;;;;;28.73;14.80;;;;;;;;;;10335047;28;20054;-66
2022/03/17 05:05:59;;;;;;;26.63;14.50;;;;;;;;;;10344560;28;20046;-68
2022/03/17 05:11:01;;;;;;;25.63;13.93;;;;;;;;;;10316699;28;20639;-67
2022/03/17 05:16:04;;;;;;;24.33;14.20;;;;;;;;;;10318257;28;20042;-68
2022/03/17 05:21:06;;;;;;;25.83;13.75;;;;;;;;;;10317643;28;20051;-67
2022/03/17 05:26:07;;;;;;;30.42;15.55;;;;;;;;;;10323581;28;20038;-67
2022/03/17 05:31:09;;;;;;;27.85;15.18;;;;;;;;;;10321281;28;20137;-67
2022/03/17 05:36:10;;;;;;;27.70;14.25;;;;;;;;;;10322095;28;20137;-67
2022/03/17 05:41:13;;;;;;;31.35;15.02;;;;;;;;;;10315009;28;20212;-68
2022/03/17 05:46:14;;;;;;;25.35;14.60;;;;;;;;;;10319372;28;20577;-68
2022/03/17 05:51:16;;;;;;;26.63;14.23;;;;;;;;;;10315338;28;20137;-68
2022/03/17 05:56:18;;;;;;;24.35;13.10;;;;;;;;;;10319572;28;20043;-67
2022/03/17 06:01:21;;;;;;;25.95;14.85;;;;;;;;;;10343054;28;20046;-66
2022/03/17 06:06:23;;;;;;;29.75;15.52;;;;;;;;;;10351239;28;20046;-70
2022/03/17 06:11:24;;;;;;;31.42;14.95;;;;;;;;;;10328487;28;20050;-71
2022/03/17 06:16:25;;;;;;;32.85;15.73;;;;;;;;;;10326257;28;20058;-71
2022/03/17 06:21:27;;;;;;;29.38;15.27;;;;;;;;;;10324949;28;20050;-70
2022/03/17 06:26:28;;;;;;;29.52;15.07;;;;;;;;;;10324049;28;20058;-70
2022/03/17 06:31:30;;;;;;;31.92;16.90;;;;;;;;;;10327349;28;20057;-73
2022/03/17 06:36:31;;;;;;;31.02;16.17;;;;;;;;;;10326747;28;20046;-74
2022/03/17 06:41:33;;;;;;;28.08;14.65;;;;;;;;;;10324266;28;20074;-74
2022/03/17 06:46:34;;;;;;;29.60;16.05;;;;;;;;;;10331150;28;20054;-76
2022/03/17 06:51:36;;;;;;;32.25;17.35;;;;;;;;;;10346809;28;20050;-76
2022/03/17 06:56:37;;;;;;;30.02;15.98;;;;;;;;;;10322362;28;20417;-73
2022/03/17 07:01:39;;;;;;;35.35;17.77;;;;;;;;;;10331474;28;20048;-75
2022/03/17 07:06:47;;;;;;;33.30;17.73;;;;;;;;;;10326195;28;20056;-75
2022/03/17 07:11:49;;;;;;;30.95;17.02;;;;;;;;;;10322224;28;20080;-75
2022/03/17 07:16:50;;;;;;;37.63;18.58;;;;;;;;;;10343155;28;20046;-70
2022/03/17 07:21:53;;;;;;;34.20;17.50;;;;;;;;;;10340331;28;20034;-72
2022/03/17 07:26:54;;;;;;;36.38;18.98;;;;;;;;;;10341016;28;20042;-69
2022/03/17 07:31:56;;;;;;;35.88;19.58;;;;;;;;;;10338405;28;20120;-69
2022/03/17 07:36:58;;;;;;;40.50;19.98;;;;;;;;;;10340467;28;20038;-69
2022/03/17 07:42:00;;;;;;;37.83;19.58;;;;;;;;;;10336363;28;20410;-69
2022/03/17 07:47:21;;;;;;;37.30;18.90;;;;;;;;;;10336084;28;20502;-71
2022/03/17 07:52:24;;;;;;;36.00;18.20;;;;;;;;;;10335508;28;20049;-71
2022/03/17 07:57:25;;;;;;;38.08;19.02;;;;;;;;;;10334500;28;20042;-71
2022/03/17 08:02:27;;;;;;;37.42;16.58;;;;;;;;;;10341031;28;20054;-70
2022/03/17 08:07:32;;;;;;;23.85;11.93;;;;;;;;;;10322271;28;20057;-70
2022/03/17 08:12:34;;;;;;;18.42;9.63;;;;;;;;;;10329481;28;20671;-72
2022/03/17 08:17:35;;;;;;;16.05;8.10;;;;;;;;;;10333185;28;20046;-71
2022/03/17 08:22:37;;;;;;;19.02;7.95;;;;;;;;;;10333283;28;20069;-71
2022/03/17 08:27:39;;;;;;;15.38;6.95;;;;;;;;;;10333746;28;20056;-71
2022/03/17 08:32:40;;;;;;;14.32;7.28;;;;;;;;;;10340902;28;20068;-71
2022/03/17 08:37:42;;;;;;;13.77;7.03;;;;;;;;;;10331830;28;20046;-71
2022/03/17 08:42:44;;;;;;;14.18;7.40;;;;;;;;;;10334935;28;20052;-71
2022/03/17 08:53:06;;;;;;;18.38;5.65;;;;;;;;;;10333148;28;20127;-72
2022/03/17 08:58:08;;;;;;;18.08;7.10;;;;;;;;;;10336588;28;20414;-73
2022/03/17 09:03:09;;;;;;;15.25;6.20;;;;;;;;;;10332556;28;20049;-73
2022/03/17 09:08:11;;;;;;;14.48;5.07;;;;;;;;;;10334227;28;20056;-73
2022/03/17 09:13:13;;;;;;;11.20;5.03;;;;;;;;;;10332537;28;20835;-73
2022/03/17 09:18:14;;;;;;;11.23;4.32;;;;;;;;;;10302746;28;20129;-71
2022/03/17 09:23:16;;;;;;;9.00;3.15;;;;;;;;;;10320932;28;20038;-72
2022/03/17 09:28:17;;;;;;;11.25;4.20;;;;;;;;;;10308749;28;20046;-71
2022/03/17 09:33:19;;;;;;;9.68;2.95;;;;;;;;;;10274529;28;20186;-71
2022/03/17 09:38:20;;;;;;;9.13;2.50;;;;;;;;;;10285957;28;20056;-72
2022/03/17 09:43:22;;;;;;;5.22;1.92;;;;;;;;;;10300892;28;20049;-72
2022/03/17 09:48:25;;;;;;;10.75;2.35;;;;;;;;;;10300003;28;20093;-72
2022/03/17 09:53:27;;;;;;;8.23;2.00;;;;;;;;;;10301271;28;20046;-72
2022/03/17 09:58:29;;;;;;;7.15;1.70;;;;;;;;;;10300985;28;20133;-72
2022/03/17 10:03:34;;;;;;;6.85;1.40;;;;;;;;;;10309662;28;20050;-72
2022/03/17 10:08:38;;;;;;;14.82;1.85;;;;;;;;;;10298922;28;20046;-71
2022/03/17 10:13:44;;;;;;;9.65;1.83;;;;;;;;;;10304981;28;20058;-71
2022/03/17 10:18:54;;;;;;;8.25;1.50;;;;;;;;;;10305356;28;20118;-72
2022/03/17 10:23:59;;;;;;;6.40;1.70;;;;;;;;;;10305528;28;20139;-71
2022/03/17 10:29:04;;;;;;;3.90;1.05;;;;;;;;;;10302751;28;20057;-71
2022/03/17 10:34:05;;;;;;;6.80;1.10;;;;;;;;;;10301943;28;20061;-73
2022/03/17 10:39:08;;;;;;;9.63;2.03;;;;;;;;;;10302091;28;20050;-71
2022/03/17 10:44:15;;;;;;;9.32;1.40;;;;;;;;;;10302693;28;20042;-70
2022/03/17 10:49:17;;;;;;;7.82;1.05;;;;;;;;;;10301497;28;20507;-72
2022/03/17 10:54:18;;;;;;;11.15;1.20;;;;;;;;;;10287879;28;20046;-73
2022/03/17 10:59:21;;;;;;;10.82;2.10;;;;;;;;;;10295662;28;20108;-73
2022/03/17 11:04:24;;;;;;;5.25;1.48;;;;;;;;;;10279573;28;21859;-72
2022/03/17 11:09:29;;;;;;;10.68;1.30;;;;;;;;;;10316563;28;20055;-73
2022/03/17 11:14:55;;;;;;;6.07;1.50;;;;;;;;;;10292940;28;20139;-71
2022/03/17 11:20:05;;;;;;;7.93;1.43;;;;;;;;;;10291848;28;20065;-73
2022/03/17 11:25:25;;;;;;;10.80;1.40;;;;;;;;;;10306231;28;20042;-73
2022/03/17 11:30:43;;;;;;;7.18;1.40;;;;;;;;;;10310575;28;20042;-72
2022/03/17 11:35:51;;;;;;;10.65;1.23;;;;;;;;;;10297696;28;20529;-71
2022/03/17 11:41:15;;;;;;;15.00;1.70;;;;;;;;;;10285837;28;20042;-70
2022/03/17 11:46:18;;;;;;;8.15;1.40;;;;;;;;;;10277129;28;20883;-70
2022/03/17 11:51:20;;;;;;;13.63;1.65;;;;;;;;;;10301207;28;20409;-71
2022/03/17 11:56:35;;;;;;;13.13;1.70;;;;;;;;;;10302923;28;20450;-71
2022/03/17 12:01:40;;;;;;;15.85;1.42;;;;;;;;;;10295829;28;20117;-71
2022/03/17 12:06:50;;;;;;;14.15;2.10;;;;;;;;;;10317588;28;20046;-71
2022/03/17 12:11:55;;;;;;;10.77;1.58;;;;;;;;;;10300808;28;20058;-73
2022/03/17 12:16:58;;;;;;;14.68;2.17;;;;;;;;;;10298826;28;20050;-73
2022/03/17 12:22:04;;;;;;;11.85;1.73;;;;;;;;;;10299148;28;20042;-72
2022/03/17 12:27:08;;;;;;;10.65;1.52;;;;;;;;;;10297279;28;20061;-75
2022/03/17 12:32:14;;;;;;;11.40;2.20;;;;;;;;;;10297601;28;20046;-75
2022/03/17 12:37:17;;;;;;;7.57;1.48;;;;;;;;;;10294867;28;20046;-75
2022/03/17 12:42:22;;;;;;;16.05;1.92;;;;;;;;;;10295513;28;20054;-75
2022/03/17 12:47:25;;;;;;;12.57;1.95;;;;;;;;;;10281612;28;20042;-74
2022/03/17 12:52:28;;;;;;;11.40;1.60;;;;;;;;;;10292626;28;20141;-75
2022/03/17 12:57:30;;;;;;;17.10;3.35;;;;;;;;;;10299973;28;20413;-72
2022/03/17 13:02:32;;;;;;;8.20;1.58;;;;;;;;;;10297843;28;20050;-73
2022/03/17 13:07:35;;;;;;;14.70;2.15;;;;;;;;;;10288872;28;20419;-73
2022/03/17 13:18:02;;;;;;;9.38;1.58;;;;;;;;;;10283504;28;20046;-72
2022/03/17 13:23:08;;;;;;;8.43;1.40;;;;;;;;;;10315476;28;20761;-73
2022/03/17 13:28:13;;;;;;;11.13;1.48;;;;;;;;;;10307046;28;20063;-73
2022/03/17 13:33:24;;;;;;;10.18;1.70;;;;;;;;;;10277175;28;20069;-73
2022/03/17 13:38:33;;;;;;;10.30;1.25;;;;;;;;;;10320216;28;20057;-73
2022/03/17 13:43:35;;;;;;;5.95;1.42;;;;;;;;;;10311633;28;20046;-74
2022/03/17 13:48:37;;;;;;;7.88;1.27;;;;;;;;;;10284664;28;20047;-75
2022/03/17 13:53:40;;;;;;;12.75;1.60;;;;;;;;;;10284716;28;20552;-77
2022/03/17 13:58:43;;;;;;;9.95;1.40;;;;;;;;;;10284445;28;20058;-75
2022/03/17 14:03:44;;;;;;;10.02;2.40;;;;;;;;;;10301795;28;20058;-73
2022/03/17 14:08:47;;;;;;;12.43;1.90;;;;;;;;;;10300339;28;20043;-75
2022/03/17 14:13:53;;;;;;;10.50;1.20;;;;;;;;;;10298013;28;20054;-73
2022/03/17 14:18:55;;;;;;;11.20;1.52;;;;;;;;;;10292012;28;20058;-73
2022/03/17 14:24:12;;;;;;;11.18;1.60;;;;;;;;;;10304543;28;20054;-75
2022/03/17 14:29:15;;;;;;;6.32;1.20;;;;;;;;;;10296310;28;20078;-74
2022/03/17 14:34:19;;;;;;;9.77;1.70;;;;;;;;;;10301370;28;20051;-72
2022/03/17 14:39:20;;;;;;;9.38;1.20;;;;;;;;;;10302318;28;20046;-74
2022/03/17 14:44:22;;;;;;;9.50;1.17;;;;;;;;;;10289832;28;20039;-74
2022/03/17 14:49:24;;;;;;;7.15;1.70;;;;;;;;;;10293409;28;20510;-73
2022/03/17 14:54:25;;;;;;;5.70;1.23;;;;;;;;;;10292627;28;20046;-74
2022/03/17 14:59:28;;;;;;;8.75;1.45;;;;;;;;;;10294065;28;20510;-73
2022/03/17 15:04:32;;;;;;;15.20;1.67;;;;;;;;;;10314407;28;20053;-74
2022/03/17 15:09:42;;;;;;;8.50;1.38;;;;;;;;;;10299458;28;20039;-72
2022/03/17 15:14:43;;;;;;;11.93;1.35;;;;;;;;;;10298079;28;20050;-74
2022/03/17 15:19:45;;;;;;;11.63;1.55;;;;;;;;;;10299545;28;20572;-73
2022/03/17 15:24:47;;;;;;;8.27;1.75;;;;;;;;;;10301026;28;20398;-75
2022/03/17 15:35:10;;;;;;;9.88;2.28;;;;;;;;;;10307855;28;20146;-76
2022/03/17 15:40:12;;;;;;;9.45;1.50;;;;;;;;;;10296833;28;20058;-76
2022/03/17 15:45:14;;;;;;;6.22;1.00;;;;;;;;;;10290341;28;20052;-73
2022/03/17 15:50:16;;;;;;;5.63;1.00;;;;;;;;;;10305907;28;20051;-74
2022/03/17 15:55:43;;;;;;;6.57;1.20;;;;;;;;;;10298358;28;20513;-75
2022/03/17 16:00:46;;;;;;;6.50;1.05;;;;;;;;;;10311281;28;20050;-73
2022/03/17 16:05:59;;;;;;;5.45;0.85;;;;;;;;;;10305592;28;20483;-75
2022/03/17 16:16:24;;;;;;;13.73;1.80;;;;;;;;;;10327013;28;22361;-73
2022/03/17 16:21:33;;;;;;;4.78;0.88;;;;;;;;;;10311423;28;20046;-75
2022/03/17 16:26:34;;;;;;;6.60;1.27;;;;;;;;;;10305358;28;20045;-74
2022/03/17 16:31:45;;;;;;;10.27;1.10;;;;;;;;;;10299883;28;20047;-76
2022/03/17 16:36:47;;;;;;;5.53;1.17;;;;;;;;;;10298609;28;20035;-75
2022/03/17 16:41:54;;;;;;;8.30;1.60;;;;;;;;;;10289377;28;20058;-75
2022/03/17 16:46:57;;;;;;;4.45;1.10;;;;;;;;;;10295812;28;20057;-75
2022/03/17 16:51:59;;;;;;;7.57;0.95;;;;;;;;;;10303440;28;20581;-75
2022/03/17 16:57:01;;;;;;;7.65;1.13;;;;;;;;;;10285810;28;20042;-75
2022/03/17 17:02:03;;;;;;;9.18;1.13;;;;;;;;;;10304957;28;20047;-71
2022/03/17 17:07:06;;;;;;;8.88;1.08;;;;;;;;;;10297593;28;20429;-74
2022/03/17 17:12:09;;;;;;;5.47;1.10;;;;;;;;;;10296105;28;20043;-73
2022/03/17 17:17:11;;;;;;;7.60;1.60;;;;;;;;;;10292401;28;20054;-73
2022/03/17 17:22:13;;;;;;;7.05;1.17;;;;;;;;;;10296454;28;20054;-74
2022/03/17 17:32:36;;;;;;;7.95;1.35;;;;;;;;;;10287734;28;20551;-72
2022/03/17 17:37:37;;;;;;;8.27;1.65;;;;;;;;;;10294179;28;20058;-71
2022/03/17 17:42:40;;;;;;;6.22;1.27;;;;;;;;;;10289700;28;20222;-74
2022/03/17 17:47:42;;;;;;;8.15;1.65;;;;;;;;;;10294279;28;20046;-73
2022/03/17 17:52:44;;;;;;;15.32;1.65;;;;;;;;;;10274615;28;20051;-75
2022/03/17 17:57:47;;;;;;;8.60;1.55;;;;;;;;;;10300794;28;21158;-75
2022/03/17 18:02:48;;;;;;;8.88;2.30;;;;;;;;;;10294006;28;20046;-73
2022/03/17 18:07:50;;;;;;;12.75;2.42;;;;;;;;;;10314272;28;20042;-74
2022/03/17 18:12:55;;;;;;;13.02;3.05;;;;;;;;;;10309670;28;20054;-72
2022/03/17 18:17:58;;;;;;;9.35;2.67;;;;;;;;;;10294165;28;20081;-72
2022/03/17 18:23:01;;;;;;;12.68;3.55;;;;;;;;;;10302123;28;20050;-74
2022/03/17 18:28:04;;;;;;;12.00;2.80;;;;;;;;;;10302591;28;20046;-72
2022/03/17 18:33:06;;;;;;;11.25;2.70;;;;;;;;;;10291137;28;20065;-73
2022/03/17 18:38:08;;;;;;;12.40;3.03;;;;;;;;;;10299427;28;20038;-72
2022/03/17 18:43:10;;;;;;;13.05;2.90;;;;;;;;;;10284428;28;20609;-73
2022/03/17 18:48:12;;;;;;;9.68;3.50;;;;;;;;;;10307241;28;20046;-72
2022/03/17 18:53:14;;;;;;;13.07;3.42;;;;;;;;;;10286194;28;20133;-71
2022/03/17 18:58:15;;;;;;;16.48;3.47;;;;;;;;;;10304701;28;20050;-71
2022/03/17 19:03:17;;;;;;;13.18;3.40;;;;;;;;;;10312105;28;20046;-72
2022/03/17 19:08:19;;;;;;;12.55;3.08;;;;;;;;;;10308169;28;21594;-70
2022/03/17 19:13:22;;;;;;;17.55;3.97;;;;;;;;;;10289866;28;20150;-75
2022/03/17 19:18:24;;;;;;;15.40;4.80;;;;;;;;;;10299836;28;20054;-74
2022/03/17 19:23:25;;;;;;;18.52;4.78;;;;;;;;;;10296298;28;20305;-71
2022/03/17 19:28:27;;;;;;;17.23;5.32;;;;;;;;;;10284041;28;20042;-72
2022/03/17 19:33:30;;;;;;;14.60;5.15;;;;;;;;;;10307474;28;20070;-72
2022/03/17 19:38:31;;;;;;;18.67;6.18;;;;;;;;;;10304901;28;20058;-72
2022/03/17 19:43:34;;;;;;;16.10;6.22;;;;;;;;;;10306147;28;20052;-75
2022/03/17 19:48:36;;;;;;;21.67;6.80;;;;;;;;;;10290434;28;20161;-72
2022/03/17 19:53:39;;;;;;;14.70;6.70;;;;;;;;;;10306706;28;20052;-71
2022/03/17 19:58:45;;;;;;;25.70;7.63;;;;;;;;;;10318494;28;20072;-71
2022/03/17 20:03:47;;;;;;;15.85;6.88;;;;;;;;;;10319938;28;20051;-71
2022/03/17 20:08:50;;;;;;;17.17;7.70;;;;;;;;;;10324898;28;20034;-73
2022/03/17 20:13:52;;;;;;;21.25;7.03;;;;;;;;;;10297334;28;20042;-73
2022/03/17 20:18:55;;;;;;;18.40;6.95;;;;;;;;;;10302948;28;20085;-73
2022/03/17 20:23:56;;;;;;;20.20;7.57;;;;;;;;;;10296436;28;20140;-73
2022/03/17 20:28:58;;;;;;;19.85;7.28;;;;;;;;;;10303113;28;20049;-73
2022/03/17 20:34:19;;;;;;;14.52;6.55;;;;;;;;;;10298837;28;20050;-74
2022/03/17 20:39:21;;;;;;;19.27;7.15;;;;;;;;;;10283541;28;20050;-74
2022/03/17 20:44:22;;;;;;;16.52;6.43;;;;;;;;;;10295551;28;20057;-73
2022/03/17 20:49:28;;;;;;;19.58;7.70;;;;;;;;;;10296249;28;20125;-73
2022/03/17 20:54:30;;;;;;;18.10;7.65;;;;;;;;;;10301438;28;20588;-73
2022/03/17 20:59:31;;;;;;;17.17;6.90;;;;;;;;;;10298884;28;20050;-74
2022/03/17 21:04:32;;;;;;;17.23;6.65;;;;;;;;;;10299399;28;20753;-74
2022/03/17 21:09:34;;;;;;;33.03;13.70;;;;;;;;;;10298901;28;20044;-73
2022/03/17 21:14:35;;;;;;;26.88;10.38;;;;;;;;;;10289710;28;20050;-72
2022/03/17 21:19:37;;;;;;;23.25;11.18;;;;;;;;;;10286248;28;20047;-71
2022/03/17 21:24:43;;;;;;;18.33;6.25;;;;;;;;;;10295319;28;20117;-74
2022/03/17 21:29:44;;;;;;;16.30;6.95;;;;;;;;;;10341175;28;20034;-74
2022/03/17 21:34:46;;;;;;;19.15;6.43;;;;;;;;;;10294089;28;20073;-73
2022/03/17 21:39:47;;;;;;;16.63;5.63;;;;;;;;;;10291958;28;20049;-74
2022/03/17 21:44:52;;;;;;;17.42;5.53;;;;;;;;;;10346219;28;20049;-73
2022/03/17 21:49:53;;;;;;;13.90;4.53;;;;;;;;;;10289566;28;20049;-72
2022/03/17 21:54:55;;;;;;;8.02;3.10;;;;;;;;;;10287682;28;20051;-72
2022/03/17 22:00:01;;;;;;;11.88;3.15;;;;;;;;;;10291257;28;20109;-72
2022/03/17 22:05:12;;;;;;;8.40;3.13;;;;;;;;;;10298004;28;20042;-71
2022/03/17 22:10:13;;;;;;;9.30;2.67;;;;;;;;;;10292514;28;20810;-72
2022/03/17 22:15:15;;;;;;;11.55;2.67;;;;;;;;;;10293727;28;20054;-72
2022/03/17 22:20:17;;;;;;;8.88;2.60;;;;;;;;;;10296523;28;20050;-72
2022/03/17 22:25:19;;;;;;;12.52;2.60;;;;;;;;;;10293609;28;20058;-73
2022/03/17 22:30:21;;;;;;;8.10;3.03;;;;;;;;;;10293549;28;20042;-73
2022/03/17 22:35:22;;;;;;;12.60;3.40;;;;;;;;;;10293043;28;20047;-73
2022/03/17 22:45:44;;;;;;;12.65;3.38;;;;;;;;;;10286463;28;20663;-73
2022/03/17 22:50:46;;;;;;;13.00;3.55;;;;;;;;;;10284995;28;20705;-73
2022/03/17 22:55:48;;;;;;;13.00;3.10;;;;;;;;;;10265073;28;20089;-73
2022/03/17 23:00:49;;;;;;;11.70;3.20;;;;;;;;;;10271368;28;20051;-71
2022/03/17 23:05:51;;;;;;;11.65;2.58;;;;;;;;;;10280112;28;20061;-74
2022/03/17 23:10:52;;;;;;;9.35;2.67;;;;;;;;;;10278604;28;20047;-73
2022/03/17 23:15:54;;;;;;;9.20;3.53;;;;;;;;;;10291163;28;20058;-73
2022/03/17 23:21:14;;;;;;;20.88;6.15;;;;;;;;;;10290990;28;20055;-73
2022/03/17 23:26:15;;;;;;;19.92;4.68;;;;;;;;;;10279723;28;20109;-73
2022/03/17 23:31:17;;;;;;;11.57;5.00;;;;;;;;;;10279689;28;20043;-73
2022/03/17 23:36:18;;;;;;;8.80;3.03;;;;;;;;;;10286303;28;20137;-73
2022/03/17 23:41:20;;;;;;;5.95;2.20;;;;;;;;;;10286305;28;20426;-73
2022/03/17 23:46:38;;;;;;;6.85;2.50;;;;;;;;;;10282903;28;20035;-72
2022/03/17 23:52:27;;;;;;;5.55;2.28;;;;;;;;;;10279012;28;20054;-72
2022/03/17 23:57:01;;;;;;;7.95;2.50;;;;;;;;;;10279047;28;20057;-74
